createdAt,value
2017-06-13T00:00:58.201Z,49.39
2017-06-13T00:01:59.618Z,49.39
2017-06-13T00:03:01.039Z,49.39
2017-06-13T00:04:02.470Z,49.48
2017-06-13T00:05:03.884Z,49.27
2017-06-13T00:06:05.299Z,49.19
2017-06-13T00:07:06.717Z,49.37
2017-06-13T00:08:08.139Z,49.27
2017-06-13T00:09:09.557Z,49.39
2017-06-13T00:10:10.977Z,49.55
2017-06-13T00:11:12.455Z,49.58
2017-06-13T00:12:13.866Z,48.61
2017-06-13T00:13:15.289Z,49.00
2017-06-13T00:14:16.706Z,49.19
2017-06-13T00:15:18.126Z,48.81
2017-06-13T00:16:19.543Z,48.90
2017-06-13T00:17:20.964Z,48.88
2017-06-13T00:18:22.380Z,48.97
2017-06-13T00:19:23.808Z,48.88
2017-06-13T00:20:25.226Z,49.00
2017-06-13T00:21:26.640Z,49.19
2017-06-13T00:22:28.059Z,48.79
2017-06-13T00:23:29.492Z,48.79
2017-06-13T00:24:30.910Z,48.90
2017-06-13T00:25:32.332Z,48.97
2017-06-13T00:26:33.751Z,48.88
2017-06-13T00:27:35.166Z,48.88
2017-06-13T00:28:36.586Z,48.79
2017-06-13T00:29:38.006Z,49.39
2017-06-13T00:30:39.423Z,48.88
2017-06-13T00:31:40.848Z,49.07
2017-06-13T00:32:42.257Z,49.55
2017-06-13T00:33:43.675Z,49.17
2017-06-13T00:34:45.095Z,49.17
2017-06-13T00:35:46.523Z,49.55
2017-06-13T00:36:47.953Z,49.07
2017-06-13T00:37:49.374Z,49.17
2017-06-13T00:38:50.792Z,48.97
2017-06-13T00:39:52.206Z,49.27
2017-06-13T00:40:53.625Z,49.17
2017-06-13T00:41:55.043Z,49.17
2017-06-13T00:42:56.461Z,49.17
2017-06-13T00:43:57.886Z,49.07
2017-06-13T00:44:59.310Z,48.97
2017-06-13T00:46:00.736Z,49.27
2017-06-13T00:47:02.160Z,49.17
2017-06-13T00:48:03.570Z,49.17
2017-06-13T00:49:05.004Z,49.17
2017-06-13T00:50:06.422Z,49.37
2017-06-13T00:51:07.850Z,49.37
2017-06-13T00:52:09.274Z,49.27
2017-06-13T00:53:10.695Z,49.17
2017-06-13T00:54:12.108Z,49.37
2017-06-13T00:55:13.525Z,49.17
2017-06-13T00:56:14.938Z,49.27
2017-06-13T00:57:16.359Z,49.37
2017-06-13T00:58:17.795Z,49.07
2017-06-13T00:59:19.213Z,49.55
2017-06-13T01:00:20.636Z,49.17
2017-06-13T01:01:22.069Z,49.55
2017-06-13T01:02:23.478Z,49.27
2017-06-13T01:03:24.937Z,49.17
2017-06-13T01:04:26.522Z,49.37
2017-06-13T01:05:27.997Z,49.37
2017-06-13T01:06:29.418Z,49.37
2017-06-13T01:07:30.836Z,49.17
2017-06-13T01:08:32.257Z,49.27
2017-06-13T01:09:33.715Z,49.27
2017-06-13T01:10:35.129Z,48.88
2017-06-13T01:11:36.544Z,49.46
2017-06-13T01:12:37.973Z,49.37
2017-06-13T01:13:39.382Z,49.55
2017-06-13T01:14:40.796Z,48.97
2017-06-13T01:15:42.208Z,49.27
2017-06-13T01:16:43.630Z,49.07
2017-06-13T01:17:45.044Z,48.79
2017-06-13T01:18:46.472Z,48.97
2017-06-13T01:19:47.891Z,48.88
2017-06-13T01:20:49.309Z,48.79
2017-06-13T01:21:50.725Z,48.88
2017-06-13T01:22:52.150Z,48.97
2017-06-13T01:23:53.559Z,48.88
2017-06-13T01:24:54.973Z,48.79
2017-06-13T01:25:56.389Z,48.88
2017-06-13T01:26:57.806Z,48.88
2017-06-13T01:27:59.224Z,48.88
2017-06-13T01:29:00.651Z,48.88
2017-06-13T01:30:02.089Z,48.88
2017-06-13T01:31:03.501Z,48.59
2017-06-13T01:32:04.920Z,48.88
2017-06-13T01:33:06.348Z,48.79
2017-06-13T01:34:07.757Z,48.88
2017-06-13T01:35:09.177Z,49.37
2017-06-13T01:36:10.591Z,48.97
2017-06-13T01:37:12.012Z,48.97
2017-06-13T01:38:13.423Z,48.59
2017-06-13T01:39:14.838Z,48.88
2017-06-13T01:40:16.256Z,49.07
2017-06-13T01:41:17.671Z,48.88
2017-06-13T01:42:19.116Z,48.97
2017-06-13T01:43:20.545Z,48.79
2017-06-13T01:44:21.964Z,49.17
2017-06-13T01:45:23.377Z,48.97
2017-06-13T01:46:24.793Z,48.88
2017-06-13T01:47:26.212Z,49.55
2017-06-13T01:48:27.660Z,49.27
2017-06-13T01:49:29.084Z,49.27
2017-06-13T01:50:30.500Z,49.37
2017-06-13T01:51:31.922Z,49.37
2017-06-13T01:52:33.335Z,49.17
2017-06-13T01:53:34.750Z,49.27
2017-06-13T01:54:36.187Z,49.46
2017-06-13T01:55:37.603Z,49.27
2017-06-13T01:56:39.019Z,49.27
2017-06-13T01:57:40.445Z,49.27
2017-06-13T01:58:41.910Z,49.27
2017-06-13T01:59:43.325Z,49.27
2017-06-13T02:00:44.741Z,49.17
2017-06-13T02:01:46.164Z,49.17
2017-06-13T02:02:47.578Z,49.07
2017-06-13T02:03:49.053Z,49.17
2017-06-13T02:04:50.450Z,49.27
2017-06-13T02:05:51.867Z,49.27
2017-06-13T02:06:53.322Z,49.27
2017-06-13T02:07:54.815Z,49.17
2017-06-13T02:08:56.250Z,49.65
2017-06-13T02:09:57.662Z,49.27
2017-06-13T02:10:59.080Z,49.55
2017-06-13T02:12:00.489Z,49.07
2017-06-13T02:13:01.922Z,49.55
2017-06-13T02:14:03.324Z,49.37
2017-06-13T02:15:04.756Z,49.37
2017-06-13T02:16:06.159Z,49.17
2017-06-13T02:17:07.581Z,49.46
2017-06-13T02:18:08.992Z,49.65
2017-06-13T02:19:10.411Z,49.46
2017-06-13T02:20:11.832Z,49.46
2017-06-13T02:21:13.252Z,49.17
2017-06-13T02:22:14.665Z,49.84
2017-06-13T02:23:16.096Z,49.55
2017-06-13T02:24:17.504Z,49.65
2017-06-13T02:25:18.924Z,49.27
2017-06-13T02:26:20.335Z,49.55
2017-06-13T02:27:21.751Z,49.37
2017-06-13T02:28:23.165Z,49.37
2017-06-13T02:29:24.581Z,49.27
2017-06-13T02:30:25.999Z,49.07
2017-06-13T02:31:27.416Z,49.37
2017-06-13T02:32:28.835Z,49.65
2017-06-13T02:33:30.253Z,49.55
2017-06-13T02:34:31.684Z,49.65
2017-06-13T02:35:33.109Z,49.46
2017-06-13T02:36:34.519Z,49.65
2017-06-13T02:37:35.933Z,49.37
2017-06-13T02:38:37.354Z,49.37
2017-06-13T02:39:38.765Z,49.37
2017-06-13T02:40:40.195Z,49.27
2017-06-13T02:41:41.616Z,49.17
2017-06-13T02:42:43.089Z,49.55
2017-06-13T02:43:44.506Z,49.27
2017-06-13T02:44:45.970Z,49.17
2017-06-13T02:45:47.387Z,49.55
2017-06-13T02:46:48.812Z,49.27
2017-06-13T02:47:50.221Z,49.27
2017-06-13T02:48:51.639Z,48.88
2017-06-13T02:49:53.048Z,49.27
2017-06-13T02:50:54.467Z,49.27
2017-06-13T02:51:55.881Z,49.17
2017-06-13T02:52:57.297Z,49.46
2017-06-13T02:53:58.718Z,49.46
2017-06-13T02:55:00.134Z,49.17
2017-06-13T02:56:01.549Z,49.55
2017-06-13T02:57:02.964Z,49.37
2017-06-13T02:58:04.382Z,49.37
2017-06-13T02:59:05.798Z,49.27
2017-06-13T03:00:07.220Z,49.07
2017-06-13T03:01:08.634Z,49.27
2017-06-13T03:02:10.051Z,49.55
2017-06-13T03:03:11.469Z,49.37
2017-06-13T03:04:12.883Z,49.27
2017-06-13T03:05:14.302Z,49.27
2017-06-13T03:06:15.715Z,49.46
2017-06-13T03:07:17.139Z,48.97
2017-06-13T03:08:18.554Z,49.27
2017-06-13T03:09:19.979Z,49.75
2017-06-13T03:10:21.384Z,49.37
2017-06-13T03:11:22.802Z,49.37
2017-06-13T03:12:24.264Z,49.37
2017-06-13T03:13:25.681Z,49.37
2017-06-13T03:14:27.097Z,49.17
2017-06-13T03:15:28.516Z,49.17
2017-06-13T03:16:29.928Z,49.27
2017-06-13T03:17:31.375Z,49.27
2017-06-13T03:18:32.792Z,49.27
2017-06-13T03:19:34.204Z,49.37
2017-06-13T03:20:35.628Z,49.37
2017-06-13T03:21:37.048Z,49.37
2017-06-13T03:22:38.462Z,49.27
2017-06-13T03:23:39.880Z,49.27
2017-06-13T03:24:41.828Z,49.46
2017-06-13T03:25:43.289Z,49.17
2017-06-13T03:26:44.739Z,49.65
2017-06-13T03:27:46.178Z,49.46
2017-06-13T03:28:47.612Z,49.17
2017-06-13T03:29:49.033Z,49.27
2017-06-13T03:30:50.452Z,49.55
2017-06-13T03:31:51.873Z,49.37
2017-06-13T03:32:53.288Z,49.37
2017-06-13T03:33:54.704Z,49.37
2017-06-13T03:34:56.126Z,49.27
2017-06-13T03:35:57.546Z,49.17
2017-06-13T03:36:58.978Z,49.27
2017-06-13T03:38:00.406Z,49.46
2017-06-13T03:39:01.847Z,49.46
2017-06-13T03:40:03.240Z,49.46
2017-06-13T03:41:04.651Z,49.17
2017-06-13T03:42:06.076Z,49.46
2017-06-13T03:43:07.494Z,49.37
2017-06-13T03:44:08.913Z,49.46
2017-06-13T03:45:10.332Z,49.27
2017-06-13T03:46:11.748Z,49.46
2017-06-13T03:47:13.180Z,49.55
2017-06-13T03:48:14.603Z,49.46
2017-06-13T03:49:16.025Z,49.65
2017-06-13T03:50:17.443Z,49.17
2017-06-13T03:51:18.864Z,49.46
2017-06-13T03:52:20.287Z,49.37
2017-06-13T03:53:21.703Z,49.37
2017-06-13T03:54:23.127Z,49.46
2017-06-13T03:55:24.539Z,49.37
2017-06-13T03:56:25.960Z,49.46
2017-06-13T03:57:27.379Z,49.46
2017-06-13T03:58:28.805Z,49.27
2017-06-13T03:59:30.219Z,49.55
2017-06-13T04:00:31.640Z,49.07
2017-06-13T04:01:33.059Z,49.37
2017-06-13T04:02:34.481Z,49.55
2017-06-13T04:03:35.908Z,49.55
2017-06-13T04:04:37.322Z,49.65
2017-06-13T04:05:38.743Z,49.46
2017-06-13T04:06:40.166Z,49.46
2017-06-13T04:07:41.762Z,49.27
2017-06-13T04:08:43.176Z,49.37
2017-06-13T04:09:44.601Z,49.17
2017-06-13T04:10:46.046Z,49.27
2017-06-13T04:11:47.467Z,49.37
2017-06-13T04:12:48.887Z,49.27
2017-06-13T04:13:50.312Z,49.17
2017-06-13T04:14:51.719Z,49.46
2017-06-13T04:15:53.145Z,49.37
2017-06-13T04:16:54.562Z,49.37
2017-06-13T04:17:55.987Z,49.55
2017-06-13T04:18:57.409Z,49.37
2017-06-13T04:19:58.837Z,49.55
2017-06-13T04:21:00.261Z,49.55
2017-06-13T04:22:01.682Z,49.07
2017-06-13T04:23:03.097Z,49.27
2017-06-13T04:24:04.527Z,49.46
2017-06-13T04:25:05.952Z,49.27
2017-06-13T04:26:07.381Z,49.27
2017-06-13T04:27:08.794Z,49.46
2017-06-13T04:28:10.218Z,48.28
2017-06-13T04:29:11.659Z,48.74
2017-06-13T04:30:13.069Z,49.32
2017-06-13T04:31:14.492Z,49.51
2017-06-13T04:32:15.923Z,50.15
2017-06-13T04:33:17.339Z,49.87
2017-06-13T04:34:18.755Z,50.15
2017-06-13T04:35:20.177Z,50.54
2017-06-13T04:36:21.592Z,51.12
2017-06-13T04:37:23.036Z,51.70
2017-06-13T04:38:24.440Z,51.19
2017-06-13T04:39:25.981Z,51.31
2017-06-13T04:40:27.407Z,51.53
2017-06-13T04:41:28.830Z,50.57
2017-06-13T04:42:30.247Z,49.87
2017-06-13T04:43:31.664Z,51.02
2017-06-13T04:44:33.081Z,51.60
2017-06-13T04:45:34.500Z,51.60
2017-06-13T04:46:35.916Z,51.53
2017-06-13T04:47:37.335Z,50.59
2017-06-13T04:48:38.763Z,50.01
2017-06-13T04:49:40.184Z,49.91
2017-06-13T04:50:41.607Z,49.84
2017-06-13T04:51:43.027Z,49.34
2017-06-13T04:52:44.445Z,49.17
2017-06-13T04:53:45.885Z,50.62
2017-06-13T04:54:47.330Z,51.68
2017-06-13T04:55:48.755Z,49.73
2017-06-13T04:56:50.185Z,50.11
2017-06-13T04:57:51.601Z,50.01
2017-06-13T04:58:53.022Z,50.01
2017-06-13T04:59:54.440Z,49.53
2017-06-13T05:00:55.858Z,49.12
2017-06-13T05:01:57.287Z,49.34
2017-06-13T05:02:58.698Z,50.30
2017-06-13T05:04:00.133Z,50.11
2017-06-13T05:05:01.556Z,50.01
2017-06-13T05:06:02.976Z,49.15
2017-06-13T05:07:04.395Z,49.24
2017-06-13T05:08:05.818Z,49.73
2017-06-13T05:09:07.231Z,49.43
2017-06-13T05:10:08.658Z,49.43
2017-06-13T05:11:10.680Z,49.34
2017-06-13T05:12:12.201Z,49.24
2017-06-13T05:13:13.627Z,49.15
2017-06-13T05:14:15.079Z,49.34
2017-06-13T05:15:16.498Z,49.53
2017-06-13T05:16:18.464Z,49.82
2017-06-13T05:17:19.886Z,50.27
2017-06-13T05:18:21.457Z,50.21
2017-06-13T05:19:22.865Z,49.91
2017-06-13T05:20:24.301Z,49.05
2017-06-13T05:21:25.720Z,50.01
2017-06-13T05:22:27.232Z,50.01
2017-06-13T05:23:28.710Z,49.53
2017-06-13T05:24:30.130Z,49.91
2017-06-13T05:25:31.558Z,49.32
2017-06-13T05:26:32.979Z,49.91
2017-06-13T05:27:34.395Z,50.11
2017-06-13T05:28:35.815Z,49.34
2017-06-13T05:29:37.250Z,49.24
2017-06-13T05:30:38.666Z,49.24
2017-06-13T05:31:40.089Z,49.15
2017-06-13T05:32:41.522Z,49.02
2017-06-13T05:33:42.936Z,49.24
2017-06-13T05:34:44.352Z,49.73
2017-06-13T05:35:45.773Z,49.32
2017-06-13T05:36:47.213Z,50.18
2017-06-13T05:37:48.631Z,50.47
2017-06-13T05:38:50.081Z,49.41
2017-06-13T05:39:51.497Z,49.99
2017-06-13T05:40:52.934Z,51.07
2017-06-13T05:41:54.376Z,50.30
2017-06-13T05:42:55.778Z,50.01
2017-06-13T05:43:57.198Z,49.70
2017-06-13T05:44:58.628Z,49.63
2017-06-13T05:46:00.051Z,49.60
2017-06-13T05:47:01.491Z,49.32
2017-06-13T05:48:02.907Z,50.09
2017-06-13T05:49:04.324Z,50.37
2017-06-13T05:50:05.739Z,51.62
2017-06-13T05:51:07.165Z,49.91
2017-06-13T05:52:08.588Z,49.91
2017-06-13T05:53:10.025Z,49.15
2017-06-13T05:54:11.446Z,49.34
2017-06-13T05:55:12.865Z,49.24
2017-06-13T05:56:14.289Z,49.53
2017-06-13T05:57:15.710Z,49.27
2017-06-13T05:58:17.123Z,50.04
2017-06-13T05:59:18.542Z,49.37
2017-06-13T06:00:19.981Z,50.04
2017-06-13T06:01:21.398Z,49.46
2017-06-13T06:02:22.816Z,49.17
2017-06-13T06:03:24.244Z,49.84
2017-06-13T06:04:25.660Z,50.32
2017-06-13T06:05:27.079Z,50.23
2017-06-13T06:06:28.500Z,50.23
2017-06-13T06:07:29.918Z,49.55
2017-06-13T06:08:31.336Z,49.37
2017-06-13T06:09:32.753Z,49.37
2017-06-13T06:10:34.176Z,49.17
2017-06-13T06:11:35.594Z,49.46
2017-06-13T06:12:37.014Z,49.55
2017-06-13T06:13:38.436Z,49.37
2017-06-13T06:14:39.858Z,49.37
2017-06-13T06:15:41.289Z,49.55
2017-06-13T06:16:42.706Z,48.88
2017-06-13T06:17:44.125Z,48.69
2017-06-13T06:18:45.621Z,48.69
2017-06-13T06:19:47.086Z,48.71
2017-06-13T06:20:48.513Z,49.29
2017-06-13T06:21:49.937Z,49.68
2017-06-13T06:22:51.370Z,49.48
2017-06-13T06:23:52.785Z,49.39
2017-06-13T06:24:54.220Z,49.48
2017-06-13T06:25:55.626Z,49.58
2017-06-13T06:26:57.088Z,49.68
2017-06-13T06:27:58.504Z,49.39
2017-06-13T06:28:59.932Z,49.68
2017-06-13T06:30:01.354Z,49.10
2017-06-13T06:31:02.777Z,49.58
2017-06-13T06:32:04.193Z,48.71
2017-06-13T06:33:05.612Z,48.71
2017-06-13T06:34:07.035Z,48.90
2017-06-13T06:35:08.461Z,49.10
2017-06-13T06:36:09.880Z,49.77
2017-06-13T06:37:11.294Z,48.90
2017-06-13T06:38:12.712Z,49.29
2017-06-13T06:39:14.132Z,49.19
2017-06-13T06:40:15.555Z,49.12
2017-06-13T06:41:16.976Z,48.52
2017-06-13T06:42:18.447Z,48.61
2017-06-13T06:43:19.922Z,48.61
2017-06-13T06:44:21.344Z,49.39
2017-06-13T06:45:22.796Z,49.48
2017-06-13T06:46:24.228Z,48.54
2017-06-13T06:47:25.639Z,48.83
2017-06-13T06:48:27.051Z,48.25
2017-06-13T06:49:28.479Z,48.44
2017-06-13T06:50:29.904Z,48.74
2017-06-13T06:51:31.327Z,48.44
2017-06-13T06:52:32.744Z,48.54
2017-06-13T06:53:34.178Z,48.74
2017-06-13T06:54:35.604Z,48.44
2017-06-13T06:55:37.023Z,48.25
2017-06-13T06:56:38.447Z,47.96
2017-06-13T06:57:39.868Z,48.25
2017-06-13T06:58:41.293Z,48.35
2017-06-13T06:59:42.715Z,47.96
2017-06-13T07:00:44.135Z,48.25
2017-06-13T07:01:45.550Z,47.96
2017-06-13T07:02:46.968Z,48.44
2017-06-13T07:03:48.396Z,47.87
2017-06-13T07:04:49.840Z,47.87
2017-06-13T07:05:51.242Z,47.77
2017-06-13T07:06:52.664Z,47.77
2017-06-13T07:07:54.085Z,47.58
2017-06-13T07:08:55.534Z,47.48
2017-06-13T07:09:56.929Z,47.67
2017-06-13T07:10:58.356Z,47.87
2017-06-13T07:11:59.783Z,48.06
2017-06-13T07:13:01.202Z,48.06
2017-06-13T07:14:02.627Z,48.16
2017-06-13T07:15:04.046Z,48.35
2017-06-13T07:16:05.464Z,48.16
2017-06-13T07:17:06.882Z,48.25
2017-06-13T07:18:08.300Z,48.06
2017-06-13T07:19:09.731Z,48.06
2017-06-13T07:20:11.235Z,47.96
2017-06-13T07:21:12.661Z,48.74
2017-06-13T07:22:14.087Z,48.06
2017-06-13T07:23:15.515Z,48.16
2017-06-13T07:24:16.927Z,48.74
2017-06-13T07:25:18.362Z,48.28
2017-06-13T07:26:19.787Z,47.87
2017-06-13T07:27:21.207Z,47.58
2017-06-13T07:28:22.682Z,48.08
2017-06-13T07:29:24.104Z,47.70
2017-06-13T07:30:25.521Z,47.77
2017-06-13T07:31:26.939Z,48.35
2017-06-13T07:32:28.377Z,48.74
2017-06-13T07:33:29.782Z,48.54
2017-06-13T07:34:31.202Z,48.66
2017-06-13T07:35:32.631Z,49.05
2017-06-13T07:36:34.045Z,48.66
2017-06-13T07:37:35.469Z,48.76
2017-06-13T07:38:36.896Z,48.86
2017-06-13T07:39:38.313Z,48.28
2017-06-13T07:40:39.735Z,48.18
2017-06-13T07:41:41.155Z,48.47
2017-06-13T07:42:42.616Z,48.18
2017-06-13T07:43:44.035Z,47.99
2017-06-13T07:44:45.456Z,48.08
2017-06-13T07:45:46.892Z,48.28
2017-06-13T07:46:48.304Z,48.37
2017-06-13T07:47:49.728Z,48.95
2017-06-13T07:48:51.151Z,48.28
2017-06-13T07:49:52.570Z,48.66
2017-06-13T07:50:53.990Z,48.66
2017-06-13T07:51:55.411Z,48.37
2017-06-13T07:52:56.849Z,47.99
2017-06-13T07:53:58.272Z,47.63
2017-06-13T07:54:59.694Z,47.72
2017-06-13T07:56:01.117Z,47.53
2017-06-13T07:57:02.538Z,47.33
2017-06-13T07:58:03.952Z,47.43
2017-06-13T07:59:05.375Z,47.53
2017-06-13T08:00:06.822Z,47.53
2017-06-13T08:01:08.241Z,47.43
2017-06-13T08:02:09.674Z,47.53
2017-06-13T08:03:11.096Z,47.24
2017-06-13T08:04:12.517Z,47.24
2017-06-13T08:05:13.950Z,46.56
2017-06-13T08:06:15.365Z,46.75
2017-06-13T08:07:16.783Z,46.85
2017-06-13T08:08:18.210Z,46.85
2017-06-13T08:09:19.626Z,46.85
2017-06-13T08:10:21.055Z,46.75
2017-06-13T08:11:22.489Z,46.47
2017-06-13T08:12:23.932Z,47.05
2017-06-13T08:13:25.366Z,46.85
2017-06-13T08:14:26.779Z,47.24
2017-06-13T08:15:28.204Z,47.33
2017-06-13T08:16:29.624Z,47.33
2017-06-13T08:17:31.045Z,47.05
2017-06-13T08:18:32.464Z,47.43
2017-06-13T08:19:33.890Z,47.53
2017-06-13T08:20:35.313Z,47.63
2017-06-13T08:21:36.751Z,47.72
2017-06-13T08:22:38.168Z,47.81
2017-06-13T08:23:39.587Z,47.72
2017-06-13T08:24:41.019Z,47.63
2017-06-13T08:25:42.441Z,47.33
2017-06-13T08:26:43.858Z,47.43
2017-06-13T08:27:45.281Z,47.43
2017-06-13T08:28:46.697Z,47.53
2017-06-13T08:29:48.117Z,47.14
2017-06-13T08:30:49.548Z,47.14
2017-06-13T08:31:50.966Z,47.53
2017-06-13T08:32:52.393Z,47.53
2017-06-13T08:33:53.817Z,46.95
2017-06-13T08:34:55.239Z,46.56
2017-06-13T08:35:56.661Z,46.66
2017-06-13T08:36:58.079Z,46.75
2017-06-13T08:37:59.498Z,47.24
2017-06-13T08:39:00.925Z,47.63
2017-06-13T08:40:02.353Z,47.63
2017-06-13T08:41:03.777Z,47.14
2017-06-13T08:42:05.199Z,46.85
2017-06-13T08:43:06.639Z,46.75
2017-06-13T08:44:08.057Z,46.85
2017-06-13T08:45:09.489Z,46.47
2017-06-13T08:46:10.917Z,46.85
2017-06-13T08:47:12.347Z,46.56
2017-06-13T08:48:13.763Z,46.56
2017-06-13T08:49:15.191Z,46.37
2017-06-13T08:50:16.617Z,46.56
2017-06-13T08:51:18.041Z,46.75
2017-06-13T08:52:19.462Z,46.17
2017-06-13T08:53:20.894Z,45.79
2017-06-13T08:54:22.330Z,45.59
2017-06-13T08:55:23.764Z,45.79
2017-06-13T08:56:25.180Z,45.98
2017-06-13T08:57:26.604Z,45.59
2017-06-13T08:58:28.031Z,45.59
2017-06-13T08:59:29.456Z,45.50
2017-06-13T09:00:30.882Z,45.21
2017-06-13T09:01:32.300Z,45.01
2017-06-13T09:02:33.722Z,45.40
2017-06-13T09:03:35.138Z,45.50
2017-06-13T09:04:36.574Z,45.98
2017-06-13T09:05:37.996Z,45.79
2017-06-13T09:06:39.415Z,45.89
2017-06-13T09:07:40.843Z,46.47
2017-06-13T09:08:42.255Z,46.37
2017-06-13T09:09:43.676Z,46.56
2017-06-13T09:10:45.094Z,46.85
2017-06-13T09:11:46.517Z,46.66
2017-06-13T09:12:47.971Z,46.37
2017-06-13T09:13:49.393Z,45.98
2017-06-13T09:14:50.811Z,45.98
2017-06-13T09:15:52.229Z,45.89
2017-06-13T09:16:53.652Z,45.98
2017-06-13T09:17:55.071Z,45.89
2017-06-13T09:18:56.488Z,45.89
2017-06-13T09:19:57.910Z,45.50
2017-06-13T09:20:59.335Z,45.98
2017-06-13T09:22:00.748Z,45.59
2017-06-13T09:23:02.171Z,45.98
2017-06-13T09:24:03.589Z,46.27
2017-06-13T09:25:05.010Z,46.44
2017-06-13T09:26:06.435Z,46.06
2017-06-13T09:27:07.854Z,46.54
2017-06-13T09:28:09.279Z,46.66
2017-06-13T09:29:10.707Z,46.15
2017-06-13T09:30:12.123Z,46.08
2017-06-13T09:31:13.545Z,46.08
2017-06-13T09:32:14.968Z,46.25
2017-06-13T09:33:16.393Z,46.34
2017-06-13T09:34:17.810Z,46.15
2017-06-13T09:35:19.227Z,46.25
2017-06-13T09:36:20.649Z,46.37
2017-06-13T09:37:22.064Z,46.47
2017-06-13T09:38:23.486Z,46.44
2017-06-13T09:39:24.912Z,46.64
2017-06-13T09:40:26.344Z,46.64
2017-06-13T09:41:27.796Z,46.64
2017-06-13T09:42:29.217Z,46.54
2017-06-13T09:43:30.637Z,46.25
2017-06-13T09:44:32.056Z,46.54
2017-06-13T09:45:33.476Z,46.44
2017-06-13T09:46:34.907Z,46.64
2017-06-13T09:47:36.342Z,46.81
2017-06-13T09:48:37.770Z,46.64
2017-06-13T09:49:39.184Z,46.73
2017-06-13T09:50:40.609Z,46.71
2017-06-13T09:51:42.023Z,47.22
2017-06-13T09:52:43.469Z,47.31
2017-06-13T09:53:44.885Z,46.83
2017-06-13T09:54:46.306Z,46.73
2017-06-13T09:55:47.762Z,46.64
2017-06-13T09:56:49.186Z,46.73
2017-06-13T09:57:51.759Z,46.44
2017-06-13T09:58:53.166Z,46.34
2017-06-13T09:59:54.588Z,46.25
2017-06-13T10:00:56.000Z,46.64
2017-06-13T10:01:57.436Z,46.64
2017-06-13T10:02:58.849Z,46.44
2017-06-13T10:04:00.290Z,46.06
2017-06-13T10:05:01.719Z,45.86
2017-06-13T10:06:03.137Z,46.06
2017-06-13T10:07:04.555Z,45.57
2017-06-13T10:08:05.980Z,45.59
2017-06-13T10:09:07.412Z,45.50
2017-06-13T10:10:08.838Z,45.48
2017-06-13T10:11:10.268Z,45.59
2017-06-13T10:12:11.700Z,45.40
2017-06-13T10:13:13.120Z,45.31
2017-06-13T10:14:14.544Z,45.01
2017-06-13T10:15:15.958Z,44.92
2017-06-13T10:16:17.390Z,44.92
2017-06-13T10:17:18.808Z,44.92
2017-06-13T10:18:20.226Z,45.01
2017-06-13T10:19:21.642Z,44.92
2017-06-13T10:20:23.070Z,45.01
2017-06-13T10:21:24.495Z,44.92
2017-06-13T10:22:25.962Z,44.82
2017-06-13T10:23:27.435Z,44.82
2017-06-13T10:24:28.862Z,44.82
2017-06-13T10:25:30.283Z,44.82
2017-06-13T10:26:31.714Z,45.01
2017-06-13T10:27:33.133Z,45.01
2017-06-13T10:28:34.584Z,45.31
2017-06-13T10:29:36.002Z,45.48
2017-06-13T10:30:37.424Z,45.57
2017-06-13T10:31:38.844Z,45.76
2017-06-13T10:32:40.308Z,45.86
2017-06-13T10:33:41.741Z,45.48
2017-06-13T10:34:43.158Z,46.44
2017-06-13T10:35:44.578Z,46.44
2017-06-13T10:36:45.996Z,46.64
2017-06-13T10:37:47.420Z,46.15
2017-06-13T10:38:48.848Z,46.15
2017-06-13T10:39:50.265Z,46.54
2017-06-13T10:40:51.686Z,46.73
2017-06-13T10:41:53.111Z,45.86
2017-06-13T10:42:54.527Z,46.15
2017-06-13T10:43:55.948Z,45.86
2017-06-13T10:44:57.365Z,45.96
2017-06-13T10:45:58.783Z,45.67
2017-06-13T10:47:00.213Z,45.67
2017-06-13T10:48:01.641Z,45.76
2017-06-13T10:49:03.096Z,45.67
2017-06-13T10:50:04.514Z,45.96
2017-06-13T10:51:05.946Z,45.67
2017-06-13T10:52:07.368Z,45.57
2017-06-13T10:53:08.790Z,45.57
2017-06-13T10:54:10.215Z,45.18
2017-06-13T10:55:11.637Z,45.18
2017-06-13T10:56:13.056Z,45.18
2017-06-13T10:57:14.479Z,44.92
2017-06-13T10:58:15.905Z,44.90
2017-06-13T10:59:17.326Z,45.28
2017-06-13T11:00:18.748Z,45.00
2017-06-13T11:01:20.180Z,45.09
2017-06-13T11:02:21.604Z,45.00
2017-06-13T11:03:23.039Z,45.28
2017-06-13T11:04:24.497Z,45.28
2017-06-13T11:05:25.911Z,44.90
2017-06-13T11:06:27.337Z,45.28
2017-06-13T11:07:28.765Z,45.18
2017-06-13T11:08:30.179Z,45.18
2017-06-13T11:09:31.615Z,45.38
2017-06-13T11:10:33.043Z,45.28
2017-06-13T11:11:34.499Z,45.18
2017-06-13T11:12:35.937Z,45.18
2017-06-13T11:13:37.359Z,45.00
2017-06-13T11:14:38.785Z,45.09
2017-06-13T11:15:40.206Z,45.28
2017-06-13T11:16:41.641Z,45.28
2017-06-13T11:17:43.077Z,45.00
2017-06-13T11:18:44.495Z,44.90
2017-06-13T11:19:45.926Z,45.18
2017-06-13T11:20:47.353Z,44.90
2017-06-13T11:21:48.780Z,44.90
2017-06-13T11:22:50.205Z,45.00
2017-06-13T11:23:51.625Z,45.00
2017-06-13T11:24:53.045Z,44.92
2017-06-13T11:25:54.462Z,44.90
2017-06-13T11:26:55.883Z,44.82
2017-06-13T11:27:57.318Z,44.92
2017-06-13T11:28:58.749Z,45.01
2017-06-13T11:30:00.166Z,44.73
2017-06-13T11:31:01.604Z,44.34
2017-06-13T11:32:03.029Z,44.51
2017-06-13T11:33:04.452Z,44.53
2017-06-13T11:34:05.875Z,44.34
2017-06-13T11:35:07.300Z,44.43
2017-06-13T11:36:08.721Z,44.24
2017-06-13T11:37:10.142Z,43.76
2017-06-13T11:38:11.565Z,44.05
2017-06-13T11:39:13.015Z,43.95
2017-06-13T11:40:14.442Z,44.05
2017-06-13T11:41:15.862Z,44.15
2017-06-13T11:42:17.285Z,44.05
2017-06-13T11:43:18.709Z,43.95
2017-06-13T11:44:20.129Z,43.47
2017-06-13T11:45:21.560Z,43.76
2017-06-13T11:46:22.994Z,43.66
2017-06-13T11:47:24.419Z,43.57
2017-06-13T11:48:25.844Z,43.57
2017-06-13T11:49:27.289Z,43.76
2017-06-13T11:50:28.712Z,43.66
2017-06-13T11:51:30.146Z,43.76
2017-06-13T11:52:31.575Z,43.85
2017-06-13T11:53:32.993Z,43.76
2017-06-13T11:54:34.428Z,43.66
2017-06-13T11:55:35.852Z,43.76
2017-06-13T11:56:37.275Z,43.57
2017-06-13T11:57:38.689Z,43.95
2017-06-13T11:58:40.124Z,43.76
2017-06-13T11:59:41.539Z,43.66
2017-06-13T12:00:42.958Z,44.15
2017-06-13T12:01:44.381Z,44.34
2017-06-13T12:02:45.798Z,44.70
2017-06-13T12:03:47.225Z,45.01
2017-06-13T12:04:48.710Z,45.28
2017-06-13T12:05:50.120Z,45.28
2017-06-13T12:06:51.544Z,45.57
2017-06-13T12:07:52.963Z,45.18
2017-06-13T12:08:54.385Z,45.28
2017-06-13T12:09:55.811Z,45.09
2017-06-13T12:10:57.239Z,45.18
2017-06-13T12:11:58.664Z,45.40
2017-06-13T12:13:00.095Z,45.48
2017-06-13T12:14:01.521Z,44.92
2017-06-13T12:15:03.282Z,44.92
2017-06-13T12:16:04.705Z,44.92
2017-06-13T12:17:06.136Z,44.92
2017-06-13T12:18:07.607Z,44.34
2017-06-13T12:19:09.027Z,44.15
2017-06-13T12:20:10.443Z,44.05
2017-06-13T12:21:11.867Z,43.95
2017-06-13T12:22:13.296Z,44.15
2017-06-13T12:23:14.716Z,43.95
2017-06-13T12:24:16.137Z,43.95
2017-06-13T12:25:17.562Z,43.47
2017-06-13T12:26:18.984Z,43.66
2017-06-13T12:27:20.431Z,43.85
2017-06-13T12:28:21.837Z,43.76
2017-06-13T12:29:23.260Z,43.68
2017-06-13T12:30:24.686Z,43.66
2017-06-13T12:31:26.114Z,43.68
2017-06-13T12:32:27.534Z,43.76
2017-06-13T12:33:28.956Z,43.66
2017-06-13T12:34:30.379Z,43.98
2017-06-13T12:35:31.800Z,43.49
2017-06-13T12:36:33.244Z,43.78
2017-06-13T12:37:34.656Z,43.59
2017-06-13T12:38:36.089Z,43.95
2017-06-13T12:39:37.526Z,44.05
2017-06-13T12:40:38.962Z,43.88
2017-06-13T12:41:40.382Z,43.95
2017-06-13T12:42:41.805Z,43.57
2017-06-13T12:43:43.225Z,43.95
2017-06-13T12:44:44.652Z,44.05
2017-06-13T12:45:46.103Z,44.05
2017-06-13T12:46:47.526Z,43.68
2017-06-13T12:47:48.958Z,43.98
2017-06-13T12:48:50.381Z,43.68
2017-06-13T12:49:51.821Z,43.59
2017-06-13T12:50:53.273Z,43.68
2017-06-13T12:51:54.700Z,43.49
2017-06-13T12:52:56.132Z,43.68
2017-06-13T12:53:57.552Z,43.59
2017-06-13T12:54:58.974Z,43.78
2017-06-13T12:56:00.401Z,43.59
2017-06-13T12:57:01.827Z,43.68
2017-06-13T12:58:03.256Z,43.88
2017-06-13T12:59:04.679Z,43.88
2017-06-13T13:00:06.101Z,43.78
2017-06-13T13:01:07.524Z,43.68
2017-06-13T13:02:08.955Z,43.88
2017-06-13T13:03:10.388Z,43.68
2017-06-13T13:04:11.821Z,43.59
2017-06-13T13:05:13.294Z,43.78
2017-06-13T13:06:14.714Z,43.68
2017-06-13T13:07:16.154Z,43.59
2017-06-13T13:08:17.566Z,43.88
2017-06-13T13:09:18.996Z,43.76
2017-06-13T13:10:20.445Z,43.68
2017-06-13T13:11:21.865Z,43.88